createdAt,value
2018-09-30T00:01:14.589Z,2.27
2018-09-30T00:03:42.176Z,2.27
2018-09-30T00:06:09.701Z,2.20
2018-09-30T00:08:37.190Z,1.67
2018-09-30T00:11:04.713Z,2.17
2018-09-30T00:13:32.202Z,2.00
2018-09-30T00:15:59.660Z,3.87
2018-09-30T00:18:27.234Z,1.80
2018-09-30T00:20:54.704Z,2.60
2018-09-30T00:23:22.163Z,2.27
2018-09-30T00:25:55.364Z,1.90
2018-09-30T00:28:23.019Z,1.60
2018-09-30T00:30:50.536Z,2.43
2018-09-30T00:33:18.216Z,1.77
2018-09-30T00:35:45.883Z,1.70
2018-09-30T00:38:13.396Z,2.30
2018-09-30T00:40:40.890Z,1.30
2018-09-30T00:43:08.343Z,2.37
2018-09-30T00:45:35.848Z,1.30
2018-09-30T00:48:03.520Z,2.00
2018-09-30T00:50:31.250Z,1.70
2018-09-30T00:52:58.708Z,1.90
2018-09-30T00:55:26.269Z,1.33
2018-09-30T00:57:53.808Z,1.67
2018-09-30T01:00:21.268Z,2.53
2018-09-30T01:02:48.760Z,2.40
2018-09-30T01:05:16.245Z,2.03
2018-09-30T01:07:43.710Z,1.70
2018-09-30T01:10:11.195Z,1.90
2018-09-30T01:12:38.649Z,1.30
2018-09-30T01:15:06.520Z,1.60
2018-09-30T01:17:34.018Z,1.90
2018-09-30T01:20:01.445Z,4.20
2018-09-30T01:22:28.877Z,3.50
2018-09-30T01:24:56.328Z,1.83
2018-09-30T01:27:23.853Z,2.07
2018-09-30T01:29:51.379Z,2.87
2018-09-30T01:32:18.852Z,1.63
2018-09-30T01:34:46.372Z,2.00
2018-09-30T01:37:13.852Z,1.53
2018-09-30T01:39:41.321Z,1.50
2018-09-30T01:42:08.854Z,1.80
2018-09-30T01:44:36.339Z,1.90
2018-09-30T01:47:03.848Z,1.77
2018-09-30T01:49:31.428Z,1.40
2018-09-30T01:52:10.351Z,1.77
2018-09-30T01:54:37.890Z,1.93
2018-09-30T01:57:05.298Z,1.90
2018-09-30T01:59:32.917Z,1.70
2018-09-30T02:02:00.385Z,1.90
2018-09-30T02:04:27.867Z,1.60
2018-09-30T02:06:55.348Z,2.00
2018-09-30T02:09:53.884Z,2.13
2018-09-30T02:12:21.354Z,1.67
2018-09-30T02:14:48.900Z,1.40
2018-09-30T02:17:16.400Z,1.40
2018-09-30T02:19:43.910Z,1.27
2018-09-30T02:22:11.504Z,1.67
2018-09-30T02:24:39.031Z,1.50
2018-09-30T02:27:06.504Z,2.00
2018-09-30T02:29:34.052Z,1.50
2018-09-30T02:32:01.526Z,1.03
2018-09-30T02:34:29.061Z,1.87
2018-09-30T02:36:56.648Z,1.30
2018-09-30T02:39:24.175Z,1.47
2018-09-30T02:41:51.697Z,1.60
2018-09-30T02:44:19.095Z,1.80
2018-09-30T02:46:46.668Z,1.87
2018-09-30T02:49:14.319Z,1.50
2018-09-30T02:51:41.952Z,1.63
2018-09-30T02:54:09.498Z,1.43
2018-09-30T02:56:37.068Z,1.93
2018-09-30T02:59:04.552Z,2.20
2018-09-30T03:01:32.071Z,1.40
2018-09-30T03:03:59.608Z,2.33
2018-09-30T03:06:32.755Z,2.10
2018-09-30T03:09:06.001Z,1.37
2018-09-30T03:11:33.748Z,2.33
2018-09-30T03:14:01.190Z,1.70
2018-09-30T03:16:28.936Z,1.80
2018-09-30T03:18:56.432Z,1.90
2018-09-30T03:21:23.932Z,1.20
2018-09-30T03:23:51.412Z,1.57
2018-09-30T03:26:18.920Z,1.20
2018-09-30T03:28:46.401Z,1.50
2018-09-30T03:31:13.849Z,1.40
2018-09-30T03:33:41.345Z,1.13
2018-09-30T03:36:08.920Z,1.83
2018-09-30T03:38:36.463Z,2.13
2018-09-30T03:41:03.988Z,1.53
2018-09-30T03:43:31.512Z,2.07
2018-09-30T03:45:59.053Z,2.00
2018-09-30T03:48:26.558Z,1.30
2018-09-30T03:50:54.017Z,1.30
2018-09-30T03:53:21.612Z,1.50
2018-09-30T03:55:49.140Z,1.90
2018-09-30T03:58:16.719Z,1.60
2018-09-30T04:00:44.147Z,1.70
2018-09-30T04:03:11.782Z,1.70
2018-09-30T04:05:39.237Z,2.27
2018-09-30T04:08:06.800Z,2.10
2018-09-30T04:10:34.283Z,2.40
2018-09-30T04:13:01.712Z,1.70
2018-09-30T04:15:29.206Z,1.90
2018-09-30T04:17:56.713Z,1.23
2018-09-30T04:20:24.178Z,1.57
2018-09-30T04:22:51.717Z,1.30
2018-09-30T04:25:19.321Z,1.63
2018-09-30T04:27:46.782Z,1.40
2018-09-30T04:30:15.344Z,1.57
2018-09-30T04:32:42.903Z,1.80
2018-09-30T04:35:10.493Z,1.57
2018-09-30T04:37:37.940Z,1.37
2018-09-30T04:40:05.705Z,1.30
2018-09-30T04:42:33.239Z,1.57
2018-09-30T04:45:01.048Z,1.50
2018-09-30T04:47:28.496Z,1.63
2018-09-30T04:49:56.593Z,2.23
2018-09-30T04:52:24.110Z,1.60
2018-09-30T04:54:51.759Z,1.97
2018-09-30T04:57:19.383Z,2.10
2018-09-30T04:59:46.901Z,1.97
2018-09-30T05:02:14.475Z,1.77
2018-09-30T05:04:42.031Z,2.17
2018-09-30T05:07:11.330Z,2.33
2018-09-30T05:09:38.779Z,3.13
2018-09-30T05:12:06.355Z,4.60
2018-09-30T05:14:34.097Z,3.67
2018-09-30T05:17:01.907Z,1.97
2018-09-30T05:19:29.697Z,1.90
2018-09-30T05:21:57.283Z,1.90
2018-09-30T05:24:24.806Z,1.70
2018-09-30T05:26:52.304Z,2.20
2018-09-30T05:29:19.847Z,2.03
2018-09-30T05:31:47.242Z,2.67
2018-09-30T05:34:14.905Z,2.07
2018-09-30T05:36:42.374Z,4.07
2018-09-30T05:39:10.721Z,2.00
2018-09-30T05:41:38.305Z,1.93
2018-09-30T05:44:36.944Z,1.87
2018-09-30T05:47:04.889Z,2.27
2018-09-30T05:49:32.434Z,1.87
2018-09-30T05:51:59.960Z,1.70
2018-09-30T05:54:27.412Z,1.90
2018-09-30T05:56:55.180Z,1.50
2018-09-30T05:59:23.821Z,2.00
2018-09-30T06:01:52.021Z,2.27
2018-09-30T06:04:19.675Z,2.23
2018-09-30T06:06:47.161Z,1.67
2018-09-30T06:09:15.608Z,1.93
2018-09-30T06:11:44.753Z,2.70
2018-09-30T06:14:12.932Z,2.70
2018-09-30T06:16:40.339Z,1.70
2018-09-30T06:19:07.854Z,2.77
2018-09-30T06:21:35.451Z,1.80
2018-09-30T06:24:03.064Z,1.80
2018-09-30T06:26:30.680Z,1.77
2018-09-30T06:28:59.324Z,2.40
2018-09-30T06:31:32.098Z,2.20
2018-09-30T06:33:59.750Z,2.43
2018-09-30T06:36:27.530Z,1.90
2018-09-30T06:38:56.685Z,1.80
2018-09-30T06:41:25.265Z,3.40
2018-09-30T06:43:52.851Z,1.97
2018-09-30T06:46:20.316Z,4.10
2018-09-30T06:48:47.810Z,3.13
2018-09-30T06:51:15.237Z,3.63
2018-09-30T06:53:42.818Z,4.07
2018-09-30T06:56:10.336Z,4.33
2018-09-30T07:02:09.732Z,3.23
2018-09-30T07:04:37.308Z,1.90
2018-09-30T07:07:04.872Z,2.00
2018-09-30T07:09:32.609Z,2.60
2018-09-30T07:12:00.118Z,2.07
2018-09-30T07:14:27.755Z,2.70
2018-09-30T07:16:55.358Z,2.60
2018-09-30T07:19:23.051Z,2.90
2018-09-30T07:21:50.587Z,3.90
2018-09-30T07:24:18.133Z,3.23
2018-09-30T07:26:45.699Z,3.57
2018-09-30T07:29:13.144Z,2.43
2018-09-30T07:31:40.686Z,2.63
2018-09-30T07:34:08.259Z,2.67
2018-09-30T07:36:35.808Z,2.70
2018-09-30T07:39:04.932Z,4.50
2018-09-30T07:41:32.545Z,5.10
2018-09-30T07:44:00.089Z,7.90
2018-09-30T07:46:27.788Z,6.37
2018-09-30T07:48:55.297Z,2.70
2018-09-30T07:51:22.800Z,2.53
2018-09-30T07:53:50.311Z,3.07
2018-09-30T07:56:17.905Z,2.00
2018-09-30T07:58:45.489Z,2.97
2018-09-30T08:01:13.047Z,2.90
2018-09-30T08:03:40.541Z,2.77
2018-09-30T08:06:08.114Z,2.83
2018-09-30T08:08:35.569Z,2.60
2018-09-30T08:11:03.103Z,3.00
2018-09-30T08:13:30.613Z,3.23
2018-09-30T08:15:58.173Z,3.23
2018-09-30T08:18:25.705Z,3.10
2018-09-30T08:20:53.197Z,3.30
2018-09-30T08:23:20.713Z,4.97
2018-09-30T08:25:48.220Z,2.50
2018-09-30T08:28:15.755Z,3.40
2018-09-30T08:30:43.298Z,3.47
2018-09-30T08:33:10.776Z,3.40
2018-09-30T08:35:38.481Z,2.17
2018-09-30T08:38:41.231Z,2.37
2018-09-30T08:41:09.984Z,3.60
2018-09-30T08:43:39.019Z,2.43
2018-09-30T08:46:06.792Z,3.27
2018-09-30T08:48:34.338Z,2.73
2018-09-30T08:51:02.015Z,2.53
2018-09-30T08:53:29.552Z,2.50
2018-09-30T08:55:57.767Z,3.53
2018-09-30T08:58:26.116Z,3.07
2018-09-30T09:00:53.736Z,3.50
2018-09-30T09:03:21.339Z,5.13
2018-09-30T09:05:48.928Z,3.67
2018-09-30T09:08:20.300Z,2.80
2018-09-30T09:10:48.035Z,2.93
2018-09-30T09:13:15.556Z,2.20
2018-09-30T09:15:43.322Z,2.23
2018-09-30T09:18:11.340Z,2.97
2018-09-30T09:20:38.978Z,2.10
2018-09-30T09:23:06.554Z,1.87
2018-09-30T09:25:34.139Z,2.60
2018-09-30T09:28:02.938Z,3.10
2018-09-30T09:30:30.408Z,2.40
2018-09-30T09:32:58.004Z,2.30
2018-09-30T09:35:25.572Z,2.57
2018-09-30T09:37:53.183Z,2.73
2018-09-30T09:40:20.743Z,2.50
2018-09-30T09:42:48.305Z,1.77
2018-09-30T09:45:15.861Z,2.10
2018-09-30T09:47:43.393Z,3.07
2018-09-30T09:50:10.954Z,2.10
2018-09-30T09:52:38.487Z,2.70
2018-09-30T09:55:05.982Z,3.10
2018-09-30T09:57:33.520Z,2.70
2018-09-30T10:00:01.078Z,2.80
2018-09-30T10:02:28.593Z,2.63
2018-09-30T10:04:56.156Z,2.23
2018-09-30T10:07:23.721Z,2.50
2018-09-30T10:09:51.237Z,2.47
2018-09-30T10:12:18.658Z,2.90
2018-09-30T10:14:46.182Z,3.73
2018-09-30T10:17:13.737Z,3.40
2018-09-30T10:19:41.316Z,3.70
2018-09-30T10:22:08.872Z,4.03
2018-09-30T10:24:36.454Z,2.87
2018-09-30T10:27:03.937Z,3.50
2018-09-30T10:29:31.998Z,3.60
2018-09-30T10:31:59.592Z,4.00
2018-09-30T10:34:27.189Z,2.83
2018-09-30T10:36:54.854Z,3.20
2018-09-30T10:39:22.582Z,3.57
2018-09-30T10:41:50.000Z,3.63
2018-09-30T10:44:18.050Z,2.90
2018-09-30T10:46:45.887Z,3.40
2018-09-30T10:49:13.653Z,3.00
2018-09-30T10:51:43.447Z,3.03
2018-09-30T10:54:14.540Z,3.10
2018-09-30T10:56:42.489Z,3.20
2018-09-30T10:59:12.741Z,3.90
2018-09-30T11:01:40.853Z,2.90
2018-09-30T11:04:08.939Z,3.87
2018-09-30T11:06:36.629Z,4.03
2018-09-30T11:09:05.516Z,3.13
2018-09-30T11:11:33.871Z,3.90
2018-09-30T11:14:02.621Z,4.20
2018-09-30T11:16:31.574Z,3.87
2018-09-30T11:18:59.124Z,3.40
2018-09-30T11:21:26.823Z,3.80
2018-09-30T11:23:54.478Z,3.73
2018-09-30T11:26:22.024Z,3.10
2018-09-30T11:28:49.633Z,3.60
2018-09-30T11:31:17.213Z,3.53
2018-09-30T11:33:44.922Z,4.27
2018-09-30T11:36:12.502Z,3.63
2018-09-30T11:38:40.070Z,3.37
2018-09-30T11:41:07.746Z,3.83
2018-09-30T11:43:35.275Z,4.17
2018-09-30T11:46:02.881Z,3.90
2018-09-30T11:48:30.360Z,3.33
2018-09-30T11:50:57.908Z,3.73
2018-09-30T11:53:25.404Z,3.53
2018-09-30T11:55:53.225Z,3.83
2018-09-30T11:58:20.813Z,4.73
2018-09-30T12:00:48.708Z,3.30
2018-09-30T12:03:16.345Z,4.17
2018-09-30T12:05:44.134Z,4.10
2018-09-30T12:08:11.739Z,4.17
2018-09-30T12:10:39.451Z,3.80
2018-09-30T12:13:07.071Z,4.30
2018-09-30T12:15:34.844Z,4.03
2018-09-30T12:18:02.588Z,5.43
2018-09-30T12:20:30.252Z,4.30
2018-09-30T12:22:58.156Z,5.03
2018-09-30T12:25:25.778Z,5.33
2018-09-30T12:27:53.400Z,4.30
2018-09-30T12:30:21.027Z,4.20
2018-09-30T12:32:48.651Z,4.20
2018-09-30T12:35:16.153Z,5.13
2018-09-30T12:37:43.805Z,4.00
2018-09-30T12:40:11.637Z,4.23
2018-09-30T12:42:39.298Z,4.20
2018-09-30T12:45:06.912Z,4.00
2018-09-30T12:47:34.513Z,4.03
2018-09-30T12:50:02.098Z,3.07
2018-09-30T12:52:29.752Z,4.57
2018-09-30T12:54:57.403Z,4.20
2018-09-30T12:57:25.324Z,3.50
2018-09-30T12:59:53.024Z,4.90
2018-09-30T13:02:20.517Z,3.70
2018-09-30T13:04:48.032Z,4.20
2018-09-30T13:07:15.787Z,3.93
2018-09-30T13:09:43.282Z,3.90
2018-09-30T13:12:12.361Z,3.80
2018-09-30T13:14:40.296Z,3.73
2018-09-30T13:17:07.900Z,3.20
2018-09-30T13:19:35.383Z,3.80
2018-09-30T13:22:03.955Z,3.43
2018-09-30T13:24:31.452Z,3.60
2018-09-30T13:27:06.199Z,4.97
2018-09-30T13:29:34.473Z,4.40
2018-09-30T13:32:02.017Z,4.10
2018-09-30T13:34:29.546Z,4.33
2018-09-30T13:36:57.167Z,3.93
2018-09-30T13:39:24.758Z,3.67
2018-09-30T13:41:52.173Z,3.87
2018-09-30T13:44:19.796Z,4.50
2018-09-30T13:46:47.353Z,4.50
2018-09-30T13:49:15.803Z,3.73
2018-09-30T13:51:43.348Z,4.33
2018-09-30T13:54:10.918Z,3.37
2018-09-30T13:56:38.460Z,3.07
2018-09-30T13:59:06.068Z,4.20
2018-09-30T14:01:33.583Z,3.73
2018-09-30T14:04:01.235Z,4.17
2018-09-30T14:06:28.771Z,3.20
2018-09-30T14:08:56.280Z,3.03
2018-09-30T14:11:23.880Z,3.30
2018-09-30T14:13:51.468Z,3.10
2018-09-30T14:16:19.021Z,3.70
2018-09-30T14:18:46.672Z,3.53
2018-09-30T14:21:14.373Z,3.40
2018-09-30T14:23:42.018Z,3.20
2018-09-30T14:26:09.631Z,2.93
2018-09-30T14:28:37.181Z,3.30
2018-09-30T14:31:04.812Z,3.13
2018-09-30T14:33:32.342Z,3.23
2018-09-30T14:35:59.899Z,3.90
2018-09-30T14:38:27.411Z,3.10
2018-09-30T14:40:55.124Z,3.07
2018-09-30T14:43:22.679Z,3.53
2018-09-30T14:45:50.276Z,3.10
2018-09-30T14:48:17.863Z,3.63
2018-09-30T14:50:45.479Z,3.10
2018-09-30T14:53:13.130Z,2.80
2018-09-30T14:55:40.708Z,3.30
2018-09-30T14:58:08.581Z,3.20
2018-09-30T15:00:36.240Z,2.80
2018-09-30T15:03:03.934Z,3.30
2018-09-30T15:05:31.372Z,3.53
2018-09-30T15:07:59.092Z,3.00
2018-09-30T15:10:26.652Z,3.03
2018-09-30T15:12:54.258Z,3.50
2018-09-30T15:15:21.896Z,4.83
2018-09-30T15:17:49.526Z,3.20
2018-09-30T15:20:17.178Z,3.33
2018-09-30T15:22:44.789Z,3.30
2018-09-30T15:25:12.345Z,3.00
2018-09-30T15:27:39.974Z,3.70
2018-09-30T15:30:07.546Z,3.57
2018-09-30T15:32:35.106Z,3.13
2018-09-30T15:35:02.691Z,3.60
2018-09-30T15:37:30.349Z,2.50
2018-09-30T15:39:57.929Z,3.00
2018-09-30T15:42:25.495Z,2.23
2018-09-30T15:44:53.025Z,2.93
2018-09-30T15:47:20.839Z,2.97
2018-09-30T15:49:48.247Z,2.50
2018-09-30T15:52:15.803Z,2.77
2018-09-30T15:54:43.372Z,3.60
2018-09-30T15:57:10.983Z,4.43
2018-09-30T15:59:38.558Z,3.43
2018-09-30T16:02:06.112Z,3.53
2018-09-30T16:04:33.656Z,3.20
2018-09-30T16:07:01.060Z,2.83
2018-09-30T16:09:28.603Z,2.93
2018-09-30T16:11:56.104Z,3.57
2018-09-30T16:14:23.762Z,3.77
2018-09-30T16:16:51.428Z,2.83
2018-09-30T16:19:19.033Z,3.63
2018-09-30T16:21:46.596Z,3.40
2018-09-30T16:24:14.267Z,3.93
2018-09-30T16:26:41.982Z,5.30
2018-09-30T16:29:09.601Z,2.97
2018-09-30T16:31:37.259Z,3.30
2018-09-30T16:34:04.867Z,3.13
2018-09-30T16:36:32.505Z,3.80
2018-09-30T16:39:00.119Z,3.40
2018-09-30T16:41:27.757Z,3.40
2018-09-30T16:43:55.339Z,3.53
2018-09-30T16:46:23.129Z,3.67
2018-09-30T16:48:50.558Z,4.87
2018-09-30T16:51:18.227Z,3.70
2018-09-30T16:53:45.762Z,5.10
2018-09-30T16:56:13.377Z,4.90
2018-09-30T16:58:40.939Z,3.40
2018-09-30T17:01:08.497Z,3.57
2018-09-30T17:03:36.400Z,3.03
2018-09-30T17:06:47.046Z,3.00
2018-09-30T17:09:14.906Z,4.23
2018-09-30T17:11:42.482Z,3.90
2018-09-30T17:14:10.100Z,3.10
2018-09-30T17:16:37.686Z,2.90
2018-09-30T17:19:05.323Z,2.77
2018-09-30T17:21:32.882Z,2.50
2018-09-30T17:24:00.578Z,2.73
2018-09-30T17:26:28.212Z,3.60
2018-09-30T17:28:55.771Z,4.40
2018-09-30T17:31:23.431Z,3.20
2018-09-30T17:33:50.987Z,4.10
2018-09-30T17:36:18.460Z,4.07
2018-09-30T17:38:46.002Z,3.30
2018-09-30T17:41:13.675Z,3.80
2018-09-30T17:43:41.294Z,3.60
2018-09-30T17:46:09.181Z,3.33
2018-09-30T17:48:36.688Z,3.50
2018-09-30T17:51:04.408Z,3.57
2018-09-30T17:53:31.815Z,3.07
2018-09-30T17:55:59.371Z,3.97
2018-09-30T17:58:26.939Z,2.87
2018-09-30T18:00:54.552Z,4.10
2018-09-30T18:03:22.146Z,3.33
2018-09-30T18:05:49.684Z,3.80
2018-09-30T18:08:17.185Z,3.30
2018-09-30T18:10:44.614Z,3.60
2018-09-30T18:13:12.122Z,3.63
2018-09-30T18:15:40.812Z,3.30
2018-09-30T18:18:08.442Z,3.70
2018-09-30T18:20:36.143Z,3.30
2018-09-30T18:23:03.942Z,3.63
2018-09-30T18:25:31.753Z,3.80
2018-09-30T18:27:59.645Z,3.73
2018-09-30T18:30:27.770Z,3.50
2018-09-30T18:32:56.393Z,3.30
2018-09-30T18:35:23.994Z,3.40
2018-09-30T18:37:51.823Z,2.97
2018-09-30T18:40:19.811Z,3.17
2018-09-30T18:42:47.677Z,2.83
2018-09-30T18:45:15.534Z,2.93
2018-09-30T18:47:43.443Z,3.87
2018-09-30T18:50:11.233Z,3.33
2018-09-30T18:52:39.091Z,2.87
2018-09-30T18:55:07.023Z,2.63
2018-09-30T18:57:34.959Z,3.00
2018-09-30T19:00:02.882Z,2.63
2018-09-30T19:02:30.726Z,2.90
2018-09-30T19:04:58.732Z,3.00
2018-09-30T19:07:26.748Z,2.67
2018-09-30T19:09:54.639Z,3.13
2018-09-30T19:12:22.530Z,2.93
2018-09-30T19:14:50.385Z,3.13
2018-09-30T19:17:18.240Z,3.80
2018-09-30T19:19:46.196Z,3.47
2018-09-30T19:22:14.150Z,3.67
2018-09-30T19:24:41.716Z,4.00
2018-09-30T19:27:09.425Z,3.57
2018-09-30T19:29:36.989Z,2.80
2018-09-30T19:32:05.653Z,2.73
2018-09-30T19:34:33.188Z,3.03
2018-09-30T19:37:00.739Z,3.60
2018-09-30T19:39:28.356Z,2.57
2018-09-30T19:41:56.014Z,2.70
2018-09-30T19:44:23.623Z,2.77
2018-09-30T19:46:51.142Z,2.90
2018-09-30T19:49:18.785Z,3.50
2018-09-30T19:51:46.301Z,2.63
2018-09-30T19:54:13.863Z,2.80
2018-09-30T19:56:41.390Z,3.00
2018-09-30T19:59:08.929Z,2.87
2018-09-30T20:01:36.490Z,2.53
2018-09-30T20:04:04.188Z,2.70
2018-09-30T20:06:31.825Z,2.70
2018-09-30T20:08:59.519Z,3.00
2018-09-30T20:11:27.145Z,3.97
2018-09-30T20:13:55.674Z,3.10
2018-09-30T20:16:23.332Z,3.20
2018-09-30T20:18:51.706Z,4.57
2018-09-30T20:21:19.278Z,3.53
2018-09-30T20:23:46.909Z,3.33
2018-09-30T20:26:14.480Z,3.50
2018-09-30T20:28:42.190Z,3.60
2018-09-30T20:31:09.865Z,3.27
2018-09-30T20:33:37.663Z,3.57
2018-09-30T20:36:05.528Z,3.90
2018-09-30T20:38:33.256Z,3.63
2018-09-30T20:41:00.855Z,3.20
2018-09-30T20:43:28.677Z,2.80
2018-09-30T20:45:56.426Z,3.13
2018-09-30T20:48:24.226Z,3.63
2018-09-30T20:50:51.829Z,3.63
2018-09-30T20:53:19.589Z,3.10
2018-09-30T20:55:47.301Z,3.57
2018-09-30T20:58:20.923Z,3.40
2018-09-30T21:00:48.845Z,3.53
2018-09-30T21:03:16.383Z,3.40
2018-09-30T21:06:23.318Z,3.43
2018-09-30T21:08:50.950Z,3.50
2018-09-30T21:11:18.619Z,3.30
2018-09-30T21:13:46.276Z,3.77
2018-09-30T21:16:14.783Z,3.80
2018-09-30T21:18:43.035Z,3.03
2018-09-30T21:21:10.721Z,2.70
2018-09-30T21:23:38.442Z,3.60
2018-09-30T21:26:06.211Z,2.70
2018-09-30T21:28:34.066Z,3.70
2018-09-30T21:31:01.778Z,3.50
2018-09-30T21:33:29.520Z,3.40
2018-09-30T21:35:57.133Z,2.87
2018-09-30T21:38:24.707Z,2.87
2018-09-30T21:40:52.331Z,3.40
2018-09-30T21:43:19.915Z,3.27
2018-09-30T21:45:47.583Z,3.00
2018-09-30T21:48:18.311Z,3.43
2018-09-30T21:50:45.703Z,3.37
2018-09-30T21:53:14.239Z,2.77
2018-09-30T21:55:41.863Z,3.37
2018-09-30T21:58:09.661Z,3.40
2018-09-30T22:00:39.644Z,3.50
2018-09-30T22:03:09.765Z,3.30
2018-09-30T22:05:38.097Z,3.90
2018-09-30T22:08:07.260Z,3.90
2018-09-30T22:10:34.908Z,4.67
2018-09-30T22:13:03.018Z,3.10
2018-09-30T22:15:30.989Z,4.07
2018-09-30T22:17:58.566Z,3.80
2018-09-30T22:20:26.592Z,2.93
2018-09-30T22:22:54.112Z,4.33
2018-09-30T22:25:21.677Z,3.07
2018-09-30T22:27:49.238Z,3.50
2018-09-30T22:30:16.860Z,3.27
2018-09-30T22:32:44.407Z,2.97
2018-09-30T22:35:11.947Z,3.40
2018-09-30T22:37:39.605Z,3.10
2018-09-30T22:40:07.537Z,3.40
2018-09-30T22:42:35.467Z,3.47
2018-09-30T22:45:03.343Z,3.93
2018-09-30T22:47:30.804Z,3.40
2018-09-30T22:49:58.455Z,3.77
2018-09-30T22:52:26.018Z,3.83
2018-09-30T22:54:53.542Z,3.70
2018-09-30T22:57:21.138Z,4.03
2018-09-30T22:59:48.682Z,3.73
2018-09-30T23:02:16.253Z,4.20
2018-09-30T23:04:43.965Z,3.20
2018-09-30T23:07:11.686Z,3.10
2018-09-30T23:09:39.271Z,4.90
2018-09-30T23:12:06.920Z,3.60
2018-09-30T23:14:34.590Z,3.80
2018-09-30T23:17:02.231Z,3.60
2018-09-30T23:19:29.901Z,3.10
2018-09-30T23:21:57.545Z,4.07
2018-09-30T23:24:25.145Z,3.33
2018-09-30T23:26:52.834Z,3.77
2018-09-30T23:29:20.487Z,3.93
2018-09-30T23:31:48.004Z,3.80
2018-09-30T23:34:15.540Z,3.73
2018-09-30T23:36:43.241Z,3.93
2018-09-30T23:39:12.235Z,5.57
2018-09-30T23:41:39.828Z,4.03
2018-09-30T23:44:07.627Z,4.60
2018-09-30T23:46:35.211Z,4.70
2018-09-30T23:49:02.796Z,4.17
2018-09-30T23:51:30.534Z,4.80
2018-09-30T23:53:58.167Z,5.00
2018-09-30T23:56:25.858Z,5.40
2018-09-30T23:58:53.395Z,4.37
